Time;durP1;ratioP1;P1;durP2;ratioP2;P2;SDS_P1;SDS_P2;PMS_P1;PMS_P2;Temp;Humidity;BMP_temperature;BMP_pressure;BME280_temperature;BME280_humidity;BME280_pressure;Samples;Min_cycle;Max_cycle;Signal;HPM_P1;HPM_P2
2023/02/06 00:01:13;;;;;;;16.40;13.70;;;5.80;99.90;;;;;;5005589;28;20037;-86
2023/02/06 00:03:39;;;;;;;20.60;13.97;;;5.70;99.90;;;;;;5000231;28;20038;-87
2023/02/06 00:06:06;;;;;;;20.43;13.90;;;5.70;99.90;;;;;;5014680;28;20434;-87
2023/02/06 00:08:33;;;;;;;19.10;13.80;;;5.70;99.90;;;;;;5017730;28;20025;-87
2023/02/06 00:11:03;;;;;;;19.03;14.40;;;5.60;99.90;;;;;;5018319;28;20398;-86
2023/02/06 00:13:29;;;;;;;18.40;13.63;;;5.60;99.90;;;;;;5001316;28;20034;-87
2023/02/06 00:15:55;;;;;;;14.87;13.03;;;5.50;99.90;;;;;;4997960;28;20043;-86
2023/02/06 00:18:21;;;;;;;15.30;13.83;;;5.60;99.90;;;;;;5020947;28;20096;-87
2023/02/06 00:20:47;;;;;;;22.17;13.33;;;5.40;99.90;;;;;;5017375;28;20025;-87
2023/02/06 00:23:13;;;;;;;19.73;13.80;;;5.40;99.90;;;;;;5001428;28;20479;-87
2023/02/06 00:25:39;;;;;;;21.30;14.50;;;5.40;99.90;;;;;;5015774;28;20049;-87
2023/02/06 00:28:05;;;;;;;22.90;13.90;;;5.50;99.90;;;;;;5012368;28;20041;-87
2023/02/06 00:30:31;;;;;;;16.03;13.03;;;5.60;99.90;;;;;;5007185;28;20044;-86
2023/02/06 00:32:58;;;;;;;17.67;13.23;;;5.50;99.90;;;;;;5000847;28;20045;-87
2023/02/06 00:35:24;;;;;;;22.97;13.83;;;5.40;99.90;;;;;;5016174;28;20041;-86
2023/02/06 00:37:50;;;;;;;18.07;13.87;;;5.30;99.90;;;;;;4997877;28;20048;-87
2023/02/06 00:40:17;;;;;;;18.43;14.43;;;5.40;99.90;;;;;;5000372;28;20046;-87
2023/02/06 00:42:43;;;;;;;14.93;13.20;;;5.30;99.90;;;;;;5016576;28;20032;-87
2023/02/06 00:45:09;;;;;;;23.67;14.20;;;5.30;99.90;;;;;;5012637;28;20050;-87
2023/02/06 00:47:35;;;;;;;22.33;13.60;;;5.40;99.90;;;;;;5026294;28;20029;-86
2023/02/06 00:50:01;;;;;;;16.10;13.83;;;5.30;99.90;;;;;;5009858;28;20034;-86
2023/02/06 00:52:27;;;;;;;16.83;13.90;;;5.50;99.90;;;;;;5028940;28;20402;-87
2023/02/06 00:54:53;;;;;;;16.33;14.13;;;5.40;99.90;;;;;;5015450;28;20036;-87
2023/02/06 00:57:19;;;;;;;20.40;13.60;;;5.30;99.90;;;;;;5011101;28;20041;-87
2023/02/06 00:59:45;;;;;;;22.30;14.23;;;5.40;99.90;;;;;;5018764;28;20036;-87
2023/02/06 01:02:11;;;;;;;17.80;13.90;;;5.40;99.90;;;;;;5004006;28;20037;-87
2023/02/06 01:04:38;;;;;;;19.57;14.20;;;5.30;99.90;;;;;;5031696;28;20049;-86
2023/02/06 01:07:04;;;;;;;25.97;14.37;;;5.20;99.90;;;;;;5029850;28;20040;-86
2023/02/06 01:09:30;;;;;;;18.47;14.77;;;5.10;99.90;;;;;;5034482;28;20041;-86
2023/02/06 01:11:56;;;;;;;19.97;14.13;;;5.00;99.90;;;;;;5015054;28;20040;-87
2023/02/06 01:14:22;;;;;;;18.77;13.23;;;5.00;99.90;;;;;;5031412;28;20524;-87
2023/02/06 01:16:48;;;;;;;16.77;13.50;;;5.00;99.90;;;;;;5018938;28;20061;-86
2023/02/06 01:19:14;;;;;;;21.17;12.77;;;5.00;99.90;;;;;;5029483;28;20042;-86
2023/02/06 01:21:40;;;;;;;21.50;13.50;;;5.00;99.90;;;;;;5008249;28;20041;-87
2023/02/06 01:24:06;;;;;;;23.13;13.97;;;5.00;99.90;;;;;;4996869;28;20042;-86
2023/02/06 01:26:33;;;;;;;18.60;14.03;;;5.00;99.90;;;;;;5012984;28;20048;-86
2023/02/06 01:28:59;;;;;;;21.67;14.30;;;5.00;99.90;;;;;;4986264;28;20057;-87
2023/02/06 01:31:27;;;;;;;20.87;14.00;;;4.90;99.90;;;;;;5015089;28;20483;-87
2023/02/06 01:33:54;;;;;;;23.23;13.60;;;4.90;99.90;;;;;;5001884;28;20527;-87
2023/02/06 01:36:20;;;;;;;21.47;14.17;;;4.90;99.90;;;;;;5015493;28;20049;-87
2023/02/06 01:38:46;;;;;;;27.07;14.17;;;4.80;99.90;;;;;;4997931;28;20391;-86
2023/02/06 01:41:13;;;;;;;18.93;13.33;;;4.80;99.90;;;;;;4996790;28;20608;-87
2023/02/06 01:43:43;;;;;;;14.97;13.23;;;4.90;99.90;;;;;;5010800;28;20026;-86
2023/02/06 01:46:10;;;;;;;25.38;13.80;;;4.80;99.90;;;;;;5012696;28;20590;-86
2023/02/06 01:48:50;;;;;;;20.43;13.40;;;4.70;99.90;;;;;;5028165;28;20044;-87
2023/02/06 01:51:18;;;;;;;20.80;13.75;;;4.70;99.90;;;;;;5006078;28;20029;-86
2023/02/06 01:53:47;;;;;;;23.60;13.83;;;4.70;99.90;;;;;;5005077;28;20033;-86
2023/02/06 01:56:18;;;;;;;23.93;13.63;;;4.70;99.90;;;;;;5013284;28;20034;-86
2023/02/06 01:58:49;;;;;;;20.10;13.00;;;4.70;99.90;;;;;;5014848;28;20025;-86
2023/02/06 02:01:15;;;;;;;;;;;4.70;99.90;;;;;;5010853;28;20475;-86
2023/02/06 02:03:42;;;;;;;16.30;13.23;;;4.60;99.90;;;;;;5013833;28;19960;-86
2023/02/06 02:06:11;;;;;;;16.97;12.60;;;4.60;99.90;;;;;;4996640;28;20040;-86
2023/02/06 02:08:42;;;;;;;14.47;12.87;;;4.60;99.90;;;;;;5007041;28;20033;-87
2023/02/06 02:11:09;;;;;;;17.30;13.20;;;4.60;99.90;;;;;;5028887;28;20026;-86
2023/02/06 02:13:37;;;;;;;17.73;12.67;;;4.60;99.90;;;;;;5014382;28;20499;-87
2023/02/06 02:16:21;;;;;;;26.77;14.67;;;4.50;99.90;;;;;;5000063;28;20050;-87
2023/02/06 02:19:12;;;;;;;20.00;14.17;;;4.60;99.90;;;;;;5012373;28;20030;-86
2023/02/06 02:21:57;;;;;;;21.83;14.65;;;4.50;99.90;;;;;;5027979;28;20414;-87
2023/02/06 02:24:41;;;;;;;17.37;13.77;;;4.60;99.90;;;;;;5019514;28;20660;-87
2023/02/06 02:27:14;;;;;;;20.83;14.70;;;4.60;99.90;;;;;;5031875;28;20036;-86
2023/02/06 02:29:46;;;;;;;21.80;14.40;;;4.60;99.90;;;;;;5030372;28;20044;-87
2023/02/06 02:32:43;;;;;;;25.37;14.93;;;4.60;99.90;;;;;;5030273;28;20044;-87
2023/02/06 02:35:21;;;;;;;22.73;14.67;;;4.60;99.90;;;;;;5031910;28;20378;-86
2023/02/06 02:37:57;;;;;;;21.97;14.20;;;4.60;99.90;;;;;;5013020;28;20037;-87
2023/02/06 02:40:47;;;;;;;19.37;13.77;;;4.50;99.90;;;;;;5009956;28;20543;-87
2023/02/06 02:43:22;;;;;;;23.40;15.60;;;4.50;99.90;;;;;;5021836;28;20029;-87
2023/02/06 02:45:53;;;;;;;24.13;14.83;;;4.60;99.90;;;;;;5012659;28;20273;-87
2023/02/06 02:48:25;;;;;;;24.40;15.07;;;4.50;99.90;;;;;;5013072;28;20048;-86
2023/02/06 02:50:52;;;;;;;23.83;15.50;;;4.60;99.90;;;;;;5006717;28;20352;-86
2023/02/06 02:53:18;;;;;;;25.50;15.77;;;4.60;99.90;;;;;;5013597;28;20036;-87
2023/02/06 02:55:45;;;;;;;24.73;15.60;;;4.50;99.90;;;;;;5013299;28;20029;-86
2023/02/06 02:58:15;;;;;;;23.93;15.53;;;4.60;99.90;;;;;;5008759;28;20466;-86
2023/02/06 03:00:59;;;;;;;20.52;14.98;;;4.60;99.90;;;;;;5005166;28;20034;-87
2023/02/06 03:03:27;;;;;;;23.03;15.40;;;4.60;99.90;;;;;;5004347;28;20033;-85
2023/02/06 03:06:07;;;;;;;24.80;15.00;;;4.50;99.90;;;;;;5061504;28;20406;-88
2023/02/06 03:08:35;;;;;;;20.97;15.60;;;4.60;99.90;;;;;;5059323;28;20474;-89
2023/02/06 03:11:15;;;;;;;19.57;15.63;;;4.60;99.90;;;;;;5044149;28;20037;-88
2023/02/06 03:14:11;;;;;;;23.07;15.50;;;4.70;99.90;;;;;;5044760;28;20026;-88
2023/02/06 03:16:49;;;;;;;18.00;15.43;;;4.70;99.90;;;;;;5029983;28;20106;-89
2023/02/06 03:19:36;;;;;;;16.73;15.00;;;4.80;99.90;;;;;;5023829;28;20045;-88
2023/02/06 03:22:02;;;;;;;23.07;15.30;;;4.70;99.90;;;;;;4999433;28;20035;-87
2023/02/06 03:24:35;;;;;;;22.90;13.93;;;4.80;99.90;;;;;;5055544;28;20041;-88
2023/02/06 03:27:03;;;;;;;24.60;16.17;;;4.90;99.90;;;;;;5000281;28;20384;-89
2023/02/06 03:29:30;;;;;;;30.20;14.83;;;4.90;99.90;;;;;;5023233;28;20050;-88
2023/02/06 03:32:03;;;;;;;29.13;15.40;;;4.80;99.90;;;;;;5009471;28;20038;-88
2023/02/06 03:34:58;;;;;;;20.17;14.73;;;4.70;99.90;;;;;;5008497;28;20037;-88
2023/02/06 03:37:25;;;;;;;28.30;15.53;;;4.60;99.90;;;;;;5032632;28;20042;-88
2023/02/06 03:39:51;;;;;;;23.63;15.43;;;4.60;99.90;;;;;;5004728;28;20031;-88
2023/02/06 03:42:17;;;;;;;26.67;15.97;;;4.40;99.90;;;;;;5001612;28;20499;-88
2023/02/06 03:44:46;;;;;;;24.33;15.40;;;4.40;99.90;;;;;;4981114;28;20049;-88
2023/02/06 03:47:12;;;;;;;19.50;15.80;;;4.40;99.90;;;;;;5012155;28;20085;-88
2023/02/06 03:49:38;;;;;;;30.33;15.50;;;4.50;99.90;;;;;;5004849;28;20404;-88
2023/02/06 03:52:05;;;;;;;17.90;14.67;;;4.30;99.90;;;;;;5021794;28;20034;-88
2023/02/06 03:54:31;;;;;;;24.33;15.87;;;4.20;99.90;;;;;;5041102;28;20023;-88
2023/02/06 03:57:02;;;;;;;25.37;15.50;;;4.20;99.90;;;;;;5008772;28;20018;-88
2023/02/06 03:59:28;;;;;;;20.23;16.45;;;4.30;99.90;;;;;;5002737;28;20475;-89
2023/02/06 04:01:56;;;;;;;23.80;15.23;;;4.20;99.90;;;;;;5005860;28;20041;-86
2023/02/06 04:04:27;;;;;;;20.67;14.90;;;4.10;99.90;;;;;;4991332;28;20042;-85
2023/02/06 04:06:57;;;;;;;23.80;15.30;;;4.00;99.90;;;;;;5001848;28;20122;-85
2023/02/06 04:09:23;;;;;;;26.13;16.10;;;4.00;99.90;;;;;;4991062;28;20030;-85
2023/02/06 04:11:50;;;;;;;27.60;15.73;;;4.10;99.90;;;;;;5027427;28;20042;-85
2023/02/06 04:14:16;;;;;;;26.90;14.80;;;4.00;99.90;;;;;;4987651;28;20041;-85
2023/02/06 04:16:42;;;;;;;22.00;14.67;;;3.90;99.90;;;;;;4995664;28;20030;-85
2023/02/06 04:19:08;;;;;;;25.70;15.37;;;3.80;99.90;;;;;;4995591;28;20034;-85
2023/02/06 04:21:34;;;;;;;18.83;15.43;;;3.80;99.90;;;;;;5027212;28;20049;-85
2023/02/06 04:24:00;;;;;;;25.20;15.00;;;3.80;99.90;;;;;;5024576;28;20030;-85
2023/02/06 04:26:26;;;;;;;30.77;16.93;;;3.80;99.90;;;;;;5027382;28;20035;-83
2023/02/06 04:28:52;;;;;;;21.47;15.60;;;3.70;99.90;;;;;;4995261;28;20023;-83
2023/02/06 04:31:18;;;;;;;22.23;16.20;;;3.70;99.90;;;;;;4994257;28;20030;-83
2023/02/06 04:33:44;;;;;;;26.60;15.63;;;3.70;99.90;;;;;;4973654;28;20050;-82
2023/02/06 04:36:10;;;;;;;25.90;16.83;;;3.70;99.90;;;;;;4981453;28;20034;-82
2023/02/06 04:38:36;;;;;;;30.00;17.23;;;3.70;99.90;;;;;;4992607;28;20057;-84
2023/02/06 04:41:04;;;;;;;27.00;15.93;;;3.70;99.90;;;;;;4995306;28;20022;-83
2023/02/06 04:43:30;;;;;;;24.50;17.53;;;3.80;99.90;;;;;;4993453;28;20031;-82
2023/02/06 04:45:56;;;;;;;29.00;16.70;;;3.80;99.90;;;;;;4985556;28;20046;-84
2023/02/06 04:48:22;;;;;;;22.10;17.93;;;3.80;99.90;;;;;;4977895;28;20030;-85
2023/02/06 04:50:49;;;;;;;30.57;17.70;;;3.90;99.90;;;;;;4993812;28;20030;-90
2023/02/06 04:53:15;;;;;;;25.33;17.10;;;3.90;99.90;;;;;;4992153;28;20026;-93
2023/02/06 04:55:41;;;;;;;27.53;18.43;;;3.80;99.90;;;;;;4977660;28;20022;-87
2023/02/06 04:58:08;;;;;;;26.27;17.97;;;3.80;99.90;;;;;;4993438;28;20041;-88
2023/02/06 05:00:34;;;;;;;32.73;19.50;;;3.90;99.90;;;;;;4972845;28;20042;-89
2023/02/06 05:03:00;;;;;;;21.27;18.70;;;3.90;99.90;;;;;;5006730;28;20373;-88
2023/02/06 05:05:26;;;;;;;26.67;18.73;;;3.80;99.90;;;;;;4994177;28;20057;-88
2023/02/06 05:07:52;;;;;;;18.33;16.43;;;3.80;99.90;;;;;;5026462;28;20041;-89
2023/02/06 05:10:18;;;;;;;32.47;18.10;;;3.80;99.90;;;;;;4977769;28;20042;-87
2023/02/06 05:12:46;;;;;;;26.47;17.33;;;3.60;99.90;;;;;;4993381;28;20045;-88
2023/02/06 05:15:13;;;;;;;25.97;17.17;;;3.60;99.90;;;;;;4993402;28;20026;-88
2023/02/06 05:17:39;;;;;;;20.47;16.70;;;3.60;99.90;;;;;;4992756;28;20023;-88
2023/02/06 05:20:05;;;;;;;25.63;17.03;;;3.60;99.90;;;;;;4993461;28;20038;-88
2023/02/06 05:22:31;;;;;;;23.47;16.73;;;3.70;99.90;;;;;;4988220;28;20043;-88
2023/02/06 05:24:57;;;;;;;23.20;16.20;;;3.60;99.90;;;;;;4973365;28;20054;-88
2023/02/06 05:27:24;;;;;;;21.83;15.43;;;3.60;99.90;;;;;;4988593;28;20043;-87
2023/02/06 05:29:50;;;;;;;23.40;15.37;;;3.60;99.90;;;;;;4962796;28;20507;-88
2023/02/06 05:32:18;;;;;;;22.13;16.97;;;3.50;99.90;;;;;;4990989;28;20046;-88
2023/02/06 05:34:44;;;;;;;26.23;15.63;;;3.50;99.90;;;;;;4990281;28;20241;-88
2023/02/06 05:37:10;;;;;;;28.50;15.40;;;3.40;99.90;;;;;;4978203;28;20485;-85
2023/02/06 05:39:36;;;;;;;20.70;13.67;;;3.40;99.90;;;;;;4973780;28;20035;-86
2023/02/06 05:42:03;;;;;;;21.73;15.10;;;3.40;99.90;;;;;;4959130;28;20039;-89
2023/02/06 05:44:29;;;;;;;28.00;15.37;;;3.40;99.90;;;;;;4974663;28;20137;-88
2023/02/06 05:46:55;;;;;;;18.73;15.00;;;3.30;99.90;;;;;;4989442;28;20038;-88
2023/02/06 05:49:21;;;;;;;18.07;13.80;;;3.40;99.90;;;;;;4973625;28;20388;-88
2023/02/06 05:51:47;;;;;;;34.33;15.03;;;3.30;99.90;;;;;;4973558;28;20042;-88
2023/02/06 05:54:15;;;;;;;25.30;15.90;;;3.30;99.90;;;;;;5025945;28;20041;-86
2023/02/06 05:56:42;;;;;;;24.40;16.33;;;3.30;99.90;;;;;;5013301;28;20022;-85
2023/02/06 05:59:08;;;;;;;25.40;15.93;;;3.30;99.90;;;;;;5024417;28;20057;-85
2023/02/06 06:01:34;;;;;;;21.97;16.50;;;3.30;99.90;;;;;;4993552;28;20432;-86
2023/02/06 06:04:00;;;;;;;30.33;17.50;;;3.30;99.90;;;;;;5009028;28;20054;-85
2023/02/06 06:06:26;;;;;;;21.07;15.13;;;3.30;99.90;;;;;;4992489;28;20046;-88
2023/02/06 06:08:52;;;;;;;30.47;17.83;;;3.20;99.90;;;;;;5025582;28;20031;-86
2023/02/06 06:11:18;;;;;;;27.13;19.30;;;3.30;99.90;;;;;;4992585;28;20372;-85
2023/02/06 06:13:44;;;;;;;36.20;20.13;;;3.20;99.90;;;;;;5023519;28;20034;-83
2023/02/06 06:16:10;;;;;;;14.20;12.20;;;3.20;99.90;;;;;;4992530;28;20136;-86
2023/02/06 06:18:37;;;;;;;32.17;21.07;;;3.20;99.90;;;;;;4992884;28;20041;-88
2023/02/06 06:21:03;;;;;;;30.13;20.33;;;3.20;99.90;;;;;;4972173;28;20392;-88
2023/02/06 06:23:29;;;;;;;33.63;20.73;;;3.10;99.90;;;;;;4957288;28;20043;-86
2023/02/06 06:25:55;;;;;;;37.87;24.03;;;3.20;99.90;;;;;;4973749;28;20042;-85
2023/02/06 06:28:21;;;;;;;37.80;25.17;;;3.20;99.90;;;;;;5017503;28;20049;-86
2023/02/06 06:30:47;;;;;;;30.90;24.07;;;3.30;99.90;;;;;;4992984;28;20034;-87
2023/02/06 06:33:15;;;;;;;30.03;21.90;;;3.30;99.90;;;;;;5002428;28;20035;-87
2023/02/06 06:35:41;;;;;;;32.73;23.83;;;3.20;99.90;;;;;;5012750;28;20392;-86
2023/02/06 06:38:07;;;;;;;27.70;21.93;;;3.20;99.90;;;;;;4973931;28;20035;-87
2023/02/06 06:40:33;;;;;;;36.90;23.47;;;3.20;99.90;;;;;;4981108;28;20460;-86
2023/02/06 06:42:59;;;;;;;32.43;24.80;;;3.20;99.90;;;;;;4992434;28;20037;-86
2023/02/06 06:45:26;;;;;;;25.30;22.43;;;3.20;99.90;;;;;;4991876;28;20514;-86
2023/02/06 06:47:52;;;;;;;26.63;22.73;;;3.20;99.90;;;;;;4992309;28;20037;-86
2023/02/06 06:50:18;;;;;;;30.00;23.30;;;3.10;99.90;;;;;;4987072;28;20046;-84
2023/02/06 06:52:44;;;;;;;35.60;23.80;;;3.10;99.90;;;;;;4991244;28;20045;-84
2023/02/06 06:55:10;;;;;;;34.73;20.27;;;3.10;99.90;;;;;;4992831;28;20037;-84
2023/02/06 06:57:36;;;;;;;39.63;22.90;;;3.10;99.90;;;;;;5023073;28;20038;-84
2023/02/06 07:00:03;;;;;;;32.57;22.03;;;3.10;99.90;;;;;;4971412;28;20038;-84
2023/02/06 07:02:29;;;;;;;29.67;24.00;;;3.00;99.90;;;;;;5009310;28;20034;-84
2023/02/06 07:04:55;;;;;;;37.93;23.13;;;3.00;99.90;;;;;;4991722;28;20065;-84
2023/02/06 07:07:21;;;;;;;39.97;23.23;;;3.00;99.90;;;;;;4990091;28;20045;-84
2023/02/06 07:09:47;;;;;;;33.10;18.90;;;3.00;99.90;;;;;;5004608;28;20480;-84
2023/02/06 07:12:14;;;;;;;32.90;20.13;;;3.10;99.90;;;;;;5003375;28;20053;-83
2023/02/06 07:14:40;;;;;;;28.00;19.70;;;3.10;99.90;;;;;;5023534;28;20396;-84
2023/02/06 07:17:06;;;;;;;31.87;20.00;;;3.20;99.90;;;;;;4991330;28;20038;-86
2023/02/06 07:19:32;;;;;;;33.43;20.00;;;3.20;99.90;;;;;;4989579;28;20510;-84
2023/02/06 07:21:58;;;;;;;34.20;21.17;;;3.20;99.90;;;;;;5024251;28;20034;-83
2023/02/06 07:24:24;;;;;;;32.23;19.67;;;3.20;99.90;;;;;;5021352;28;20030;-85
2023/02/06 07:26:51;;;;;;;29.07;16.83;;;3.30;99.90;;;;;;4976505;28;20488;-86
2023/02/06 07:29:17;;;;;;;33.20;20.60;;;3.30;99.90;;;;;;4993207;28;20045;-86
2023/02/06 07:31:43;;;;;;;20.77;13.97;;;3.20;99.90;;;;;;4990349;28;20046;-83
2023/02/06 07:34:09;;;;;;;36.70;21.13;;;3.10;99.90;;;;;;4987610;28;20039;-85
2023/02/06 07:36:35;;;;;;;38.63;19.97;;;3.10;99.90;;;;;;4970254;28;20050;-89
2023/02/06 07:39:02;;;;;;;34.53;18.90;;;3.10;99.90;;;;;;4989422;28;20050;-87
2023/02/06 07:41:28;;;;;;;22.93;18.77;;;3.10;99.90;;;;;;5024599;28;20031;-88
2023/02/06 07:43:54;;;;;;;49.50;20.43;;;3.10;99.90;;;;;;5006057;28;20030;-89
2023/02/06 07:46:20;;;;;;;27.07;18.43;;;3.10;99.90;;;;;;5025256;28;20149;-90
2023/02/06 07:48:46;;;;;;;20.83;15.50;;;3.10;99.90;;;;;;5013067;28;20035;-93
2023/02/06 07:51:13;;;;;;;32.67;18.33;;;3.10;99.90;;;;;;4996849;28;20042;-92
2023/02/06 07:53:39;;;;;;;28.07;17.83;;;3.10;99.90;;;;;;4996997;28;20038;-93
2023/02/06 07:56:12;;;;;;;29.33;17.33;;;3.10;99.90;;;;;;4996490;28;20049;-93
2023/02/06 07:58:38;;;;;;;32.40;18.57;;;3.20;99.90;;;;;;5017590;28;20141;-95
2023/02/06 08:01:05;;;;;;;24.10;17.23;;;3.30;99.90;;;;;;5025027;28;20045;-93
2023/02/06 08:03:31;;;;;;;31.23;18.33;;;3.30;99.90;;;;;;5018769;28;20038;-93
2023/02/06 08:05:57;;;;;;;36.33;17.40;;;3.20;99.90;;;;;;5008515;28;20055;-92
2023/02/06 08:08:24;;;;;;;35.93;17.63;;;3.30;99.90;;;;;;4988753;28;20037;-92
2023/02/06 08:10:51;;;;;;;33.37;16.77;;;3.30;99.90;;;;;;4991642;28;20038;-95
2023/02/06 08:13:17;;;;;;;30.43;16.50;;;3.30;99.90;;;;;;4989077;28;20023;-91
2023/02/06 08:18:19;;;;;;;35.50;17.53;;;3.30;99.90;;;;;;5011979;23;20039;-92
2023/02/06 08:20:45;;;;;;;33.23;16.63;;;3.30;99.90;;;;;;5010519;28;20034;-87
2023/02/06 08:23:11;;;;;;;43.03;17.43;;;3.50;99.90;;;;;;5342559;23;20043;-86
2023/02/06 08:25:37;;;;;;;36.10;16.97;;;3.50;99.90;;;;;;5470884;22;20028;-92
2023/02/06 08:28:03;;;;;;;30.30;17.50;;;3.60;99.90;;;;;;5323588;22;20058;-93
2023/02/06 08:30:31;;;;;;;30.77;16.93;;;3.50;99.90;;;;;;5016757;28;20034;-94
2023/02/06 08:32:57;;;;;;;36.13;19.93;;;3.70;99.90;;;;;;5031018;28;20022;-95
2023/02/06 08:37:59;;;;;;;38.07;17.87;;;3.80;99.90;;;;;;5355273;23;20047;-96
2023/02/06 08:40:25;;;;;;;34.30;18.13;;;3.70;99.90;;;;;;4964267;28;20014;-92
2023/02/06 08:42:51;;;;;;;26.20;16.67;;;3.70;99.90;;;;;;4965981;28;20027;-94
2023/02/06 08:45:18;;;;;;;35.00;16.07;;;3.70;99.90;;;;;;4967183;28;20405;-93
2023/02/06 08:47:44;;;;;;;29.40;16.07;;;3.70;99.90;;;;;;4979883;28;20469;-90
2023/02/06 08:50:10;;;;;;;34.77;14.10;;;3.90;99.90;;;;;;4966832;28;20032;-92
2023/02/06 08:52:36;;;;;;;31.17;15.00;;;3.80;99.90;;;;;;4977178;28;20046;-91
2023/02/06 08:55:02;;;;;;;33.83;14.73;;;3.80;99.90;;;;;;5008475;23;20043;-96
2023/02/06 08:57:29;;;;;;;34.13;15.30;;;3.90;99.90;;;;;;4969157;28;20027;-95
2023/02/06 08:59:55;;;;;;;39.40;15.57;;;4.00;99.90;;;;;;4946321;28;20047;-89
2023/02/06 09:02:21;;;;;;;34.70;14.97;;;4.00;99.90;;;;;;4973923;28;20049;-92
2023/02/06 09:04:47;;;;;;;16.20;11.20;;;4.20;99.90;;;;;;4974689;28;20030;-91
2023/02/06 09:07:13;;;;;;;36.13;16.67;;;4.30;99.90;;;;;;4956665;28;20055;-94
2023/02/06 09:09:39;;;;;;;25.70;15.03;;;4.40;99.90;;;;;;4977158;28;20031;-92
2023/02/06 09:12:05;;;;;;;34.90;19.53;;;4.50;99.90;;;;;;4961731;28;20051;-93
2023/02/06 09:14:31;;;;;;;14.17;12.83;;;4.50;99.90;;;;;;4968181;28;20030;-95
2023/02/06 09:16:58;;;;;;;24.30;18.93;;;4.40;99.90;;;;;;4969668;28;20042;-92
2023/02/06 09:19:24;;;;;;;40.73;21.13;;;4.40;99.90;;;;;;4960920;28;20049;-89
2023/02/06 09:21:51;;;;;;;19.50;14.47;;;4.50;99.90;;;;;;4972290;28;20392;-89
2023/02/06 09:24:17;;;;;;;38.63;17.13;;;4.40;99.90;;;;;;4959039;28;20035;-88
2023/02/06 09:26:43;;;;;;;21.00;16.47;;;4.30;99.90;;;;;;4954605;29;20047;-89
2023/02/06 09:29:10;;;;;;;31.37;17.87;;;4.40;99.90;;;;;;4953720;28;20042;-86
2023/02/06 09:31:38;;;;;;;33.67;19.40;;;4.40;99.90;;;;;;4961234;28;20047;-90
2023/02/06 09:34:04;;;;;;;28.03;17.83;;;4.50;99.90;;;;;;4959782;28;20042;-91
2023/02/06 09:36:32;;;;;;;26.47;17.77;;;4.50;99.90;;;;;;4941816;28;20034;-88
2023/02/06 09:38:58;;;;;;;32.83;20.13;;;4.40;99.90;;;;;;4955844;28;20027;-89
2023/02/06 09:41:46;;;;;;;33.47;20.10;;;4.40;99.90;;;;;;4938698;29;20039;-93
2023/02/06 09:44:34;;;;;;;34.23;21.13;;;4.50;99.90;;;;;;4962697;29;20039;-92
2023/02/06 09:47:03;;;;;;;28.23;20.57;;;4.60;99.90;;;;;;5213393;23;20051;-94
2023/02/06 09:52:29;;;;;;;30.70;22.53;;;4.70;99.90;;;;;;4973020;28;20276;-91
2023/02/06 09:55:33;;;;;;;19.93;14.90;;;4.70;99.90;;;;;;4975001;28;20499;-91
2023/02/06 09:58:30;;;;;;;33.30;23.43;;;4.80;99.90;;;;;;4975151;28;20039;-89
2023/02/06 10:01:08;;;;;;;31.33;16.67;;;4.80;99.90;;;;;;4972560;28;20531;-91
2023/02/06 10:03:41;;;;;;;28.20;24.97;;;4.90;99.90;;;;;;4957746;28;20065;-93
2023/02/06 10:06:18;;;;;;;19.13;14.93;;;4.90;99.90;;;;;;4959856;28;20043;-95
2023/02/06 10:09:29;;;;;;;16.37;13.37;;;5.00;99.90;;;;;;4967397;28;20034;-95
2023/02/06 10:12:04;;;;;;;29.80;22.40;;;5.00;99.90;;;;;;5285281;23;20062;-91
2023/02/06 10:14:39;;;;;;;24.33;12.50;;;5.10;99.90;;;;;;4956209;28;20030;-93
2023/02/06 10:17:18;;;;;;;24.00;16.73;;;5.20;99.90;;;;;;4976750;28;20034;-88
2023/02/06 10:19:57;;;;;;;38.53;23.43;;;5.30;99.90;;;;;;4957213;28;20046;-91
2023/02/06 10:22:26;;;;;;;27.33;17.33;;;5.40;99.90;;;;;;4958820;28;20049;-88
2023/02/06 10:25:02;;;;;;;34.17;17.10;;;5.40;99.90;;;;;;4970337;28;20027;-88
2023/02/06 10:27:28;;;;;;;31.73;16.50;;;5.50;99.90;;;;;;4957035;28;20057;-87
2023/02/06 10:29:54;;;;;;;26.37;14.40;;;5.70;99.90;;;;;;4953855;28;20523;-87
2023/02/06 10:32:27;;;;;;;31.60;16.60;;;5.80;99.90;;;;;;4991731;28;20052;-87
2023/02/06 10:35:27;;;;;;;28.77;14.97;;;6.00;99.90;;;;;;4992223;28;20038;-87
2023/02/06 10:37:58;;;;;;;19.07;15.43;;;6.20;99.90;;;;;;4956767;28;20050;-92
2023/02/06 10:40:40;;;;;;;29.08;18.52;;;6.40;99.90;;;;;;4965227;28;20035;-94
2023/02/06 10:43:21;;;;;;;30.10;18.63;;;6.60;99.90;;;;;;4961872;28;20026;-93
2023/02/06 10:46:02;;;;;;;23.47;15.43;;;6.80;99.90;;;;;;4962639;28;20047;-93
2023/02/06 10:48:38;;;;;;;31.88;16.58;;;6.80;99.90;;;;;;4980934;28;20050;-91
2023/02/06 10:51:25;;;;;;;32.10;16.27;;;6.70;99.90;;;;;;4957046;28;20042;-94
2023/02/06 10:53:53;;;;;;;23.43;15.50;;;6.80;99.90;;;;;;4974102;28;20050;-93
2023/02/06 10:56:23;;;;;;;22.23;14.90;;;6.80;99.90;;;;;;5159470;23;20055;-94
2023/02/06 10:58:57;;;;;;;26.60;16.48;;;6.80;99.90;;;;;;4961304;28;20199;-92
2023/02/06 11:01:24;;;;;;;30.20;16.23;;;6.80;99.90;;;;;;4946447;28;20043;-92
2023/02/06 11:04:11;;;;;;;29.60;15.60;;;6.60;99.90;;;;;;4945031;28;20046;-94
2023/02/06 11:06:38;;;;;;;27.70;15.77;;;6.70;99.90;;;;;;4972940;28;20042;-93
2023/02/06 11:09:05;;;;;;;28.43;15.47;;;6.70;99.90;;;;;;4958734;28;20376;-93
2023/02/06 11:11:35;;;;;;;19.37;13.30;;;6.80;99.90;;;;;;4973792;28;20030;-93
2023/02/06 11:14:33;;;;;;;22.37;15.03;;;6.80;99.90;;;;;;4959920;28;20034;-92
2023/02/06 11:17:00;;;;;;;16.60;13.50;;;6.60;99.90;;;;;;4944594;28;20042;-92
2023/02/06 11:19:30;;;;;;;21.80;15.37;;;6.60;99.90;;;;;;4958628;28;20473;-94
2023/02/06 11:22:06;;;;;;;30.42;16.90;;;6.50;99.90;;;;;;4969655;28;20030;-93
2023/02/06 11:24:32;;;;;;;29.13;15.67;;;6.70;99.90;;;;;;4960258;28;20042;-92
2023/02/06 11:27:00;;;;;;;21.30;14.57;;;6.70;99.90;;;;;;4944206;28;20039;-94
2023/02/06 11:29:30;;;;;;;28.80;16.13;;;6.80;99.90;;;;;;4933365;28;20039;-90
2023/02/06 11:32:01;;;;;;;22.27;15.18;;;6.90;99.90;;;;;;4942494;28;20038;-92
2023/02/06 11:34:31;;;;;;;23.23;15.40;;;6.90;99.90;;;;;;4971368;28;20380;-91
2023/02/06 11:36:59;;;;;;;16.50;13.95;;;7.00;99.90;;;;;;4955071;28;20392;-93
2023/02/06 11:39:31;;;;;;;29.83;16.60;;;7.00;99.90;;;;;;4960493;28;20042;-93
2023/02/06 11:42:05;;;;;;;14.63;13.07;;;7.20;99.90;;;;;;4962664;28;20030;-94
2023/02/06 11:44:37;;;;;;;25.90;15.73;;;7.30;99.90;;;;;;4948352;28;20026;-95
2023/02/06 11:47:25;;;;;;;16.93;12.17;;;7.20;99.90;;;;;;4954417;28;20050;-95
2023/02/06 11:49:51;;;;;;;24.58;17.65;;;7.40;99.90;;;;;;4961802;28;20042;-91
2023/02/06 11:52:29;;;;;;;27.20;15.43;;;7.50;99.90;;;;;;4978534;28;20404;-92
2023/02/06 11:55:00;;;;;;;22.35;15.35;;;7.60;99.90;;;;;;4960882;28;20038;-94
2023/02/06 11:57:27;;;;;;;26.45;16.00;;;7.70;99.90;;;;;;4943258;28;20504;-87
2023/02/06 12:00:14;;;;;;;23.15;16.20;;;7.80;99.90;;;;;;4959674;28;20384;-90
2023/02/06 12:02:40;;;;;;;23.65;14.95;;;7.90;99.90;;;;;;4968082;28;20047;-87
2023/02/06 12:05:14;;;;;;;13.55;12.23;;;7.90;99.90;;;;;;4943544;28;20042;-87
2023/02/06 12:08:01;;;;;;;16.35;13.40;;;8.00;99.90;;;;;;4945245;28;20231;-89
2023/02/06 12:10:30;;;;;;;15.45;13.77;;;8.00;99.90;;;;;;4943508;28;20395;-88
2023/02/06 12:13:17;;;;;;;19.33;13.37;;;8.00;99.90;;;;;;4943505;28;20035;-87
2023/02/06 12:15:47;;;;;;;13.47;12.10;;;7.90;99.90;;;;;;4944983;28;20039;-89
2023/02/06 12:18:37;;;;;;;17.88;15.07;;;7.80;99.90;;;;;;4944697;28;20027;-86
2023/02/06 12:21:11;;;;;;;14.00;12.63;;;7.70;99.90;;;;;;4964204;28;20049;-86
2023/02/06 12:23:42;;;;;;;17.30;13.48;;;7.70;99.90;;;;;;4966423;28;20030;-87
2023/02/06 12:26:11;;;;;;;16.77;13.13;;;7.80;99.90;;;;;;4955200;28;20050;-89
2023/02/06 12:28:37;;;;;;;18.55;13.68;;;7.90;99.90;;;;;;4928379;28;20050;-88
2023/02/06 12:31:25;;;;;;;15.85;12.98;;;8.00;99.90;;;;;;4998439;28;20037;-87
2023/02/06 12:33:53;;;;;;;22.52;14.55;;;8.10;99.90;;;;;;4985762;28;20030;-87
2023/02/06 12:36:33;;;;;;;19.42;15.55;;;8.30;99.90;;;;;;4967410;28;20011;-89
2023/02/06 12:39:03;;;;;;;16.95;14.43;;;8.40;99.90;;;;;;4985382;28;20015;-88
2023/02/06 12:41:48;;;;;;;18.42;14.95;;;8.30;99.90;;;;;;4956547;28;20047;-90
2023/02/06 12:44:14;;;;;;;17.77;12.65;;;8.60;99.90;;;;;;4975366;28;20027;-88
2023/02/06 12:46:40;;;;;;;16.55;13.05;;;8.60;99.90;;;;;;4957550;28;20043;-89
2023/02/06 12:49:42;;;;;;;14.35;12.52;;;8.50;99.90;;;;;;4941934;28;20042;-88
2023/02/06 12:52:18;;;;;;;25.50;13.90;;;8.30;99.90;;;;;;5000600;28;20019;-87
2023/02/06 12:55:01;;;;;;;20.88;14.10;;;8.20;99.90;;;;;;4951211;28;20118;-87
2023/02/06 12:57:28;;;;;;;19.17;14.40;;;8.30;99.90;;;;;;4963845;28;20050;-88
2023/02/06 13:00:31;;;;;;;23.08;15.15;;;8.20;99.90;;;;;;4967595;28;20021;-87